Plant City, FL

8:33 PM EST en Diciembre 22, 2014 (GMT -0500)
Plant City NE | Change Station
CLOSE
Current Station
Estación meteorológica personal
Location: Plant City, FL
Altura: 164 ft
Estaciones meteorológicas cercanas

Alt 164 ft 28.04 °N, 82.10 °W | Updated 1 minute ago

Clear
Despejado
68.9 ° F
Sensación térmica 68.9 ° F
N
0.0
Viento Variable Viento desde Oeste

Hoy
Alta -- | Baja -- ° F
--% Posibilidad de precipitaciones
Ayer
Alta -- | Baja -- ° F
Precip. -- pul
7:16 AM 5:38 PM
Luna nueva, 1% visible
Presión 29.96 pul
Visibilidad 10.0 Millas
Nubes Despejado
Punto de rocío 67 ° F
Humedad 93%
Precipitaciones 1.09 pul
Espesor de la nieve No disponible.
UV 0 de una escala de 12
Polen .70 de una escala de 12
Calidad del aire No disponible.
Flu Activity No disponible.
METAR KPCM 230115Z AUTO 17006KT 10SM CLR 23/22 A2996 RMK AO2

More Conditions Fewer Conditions

Presión 29.96 pul
Visibilidad 10.0 Millas
Nubes Despejado
Punto de rocío 67 ° F
Humedad 93%
Precipitaciones 1.09 pul
Espesor de la nieve No disponible.
UV 0 de una escala de 12
Polen .70 de una escala de 12
Calidad del aire No disponible.
Flu Activity No disponible.
METAR KPCM 230115Z AUTO 17006KT 10SM CLR 23/22 A2996 RMK AO2

More Conditions Fewer Conditions

10-Day Weather Forecast

Almanac

Astronomía

Dec. 22, 2014 Salida Puesta
Hora real
Crepúsculo civil
Crepúsculo náutico
Crepúsculo astronómico
Luna
Horas de luz
Horas de luz
Tomorrow will be .
, % of the Moon is Illuminated

Extremos de hoy

Máximos del estado Bajos del estado

Community

WunderPhotos

Upload Photos

1,779,753 ¡fotos cargadas!

WunderBlogs® & News

Nearby

Calidad del aire

  Calidad del aire Índice AQ Contaminante
Not available.

Grosos de nieve

Estación Profundido Altura

Actividad de terremotos

Ciudad Distance Mag. Tiempo y dato
Magnitud mínima muestra es 2,5.

Temperaturas de aguas costeras

Lugar Temperatura

Estaciones meteorológicas cercanas